Terminal Aerodrome Forecast
Issued by NWS Wilmington, OH

Current Version | Previous Version | Graphics & Text | Print | Product List | Glossary On
Versions: 1 2 3 4 5 6 7 8 9 10 11 12 13 14
000
FTUS41 KILN 101700
TAFCMH
TAF
KCMH 101730Z 1018/1118 34007KT P6SM SCT050
     FM110000 VRB03KT P6SM SKC
     FM111500 08004KT P6SM SCT050=

USA.gov is the U.S. government's official web portal to all federal, state and local government web resources and services.